CPX420 Details

Departure: Norman Manley International Airport (MKJP)
Arrival: Miami International Airport (KMIA) at N/A
Route: UCA UA301 URSUS FLIPR6
Notes:


Current Weather Information
MKJP 250500Z 09006KT 9999 FEW020 29/23 Q1015
KMIA 250453Z 18004KT 10SM FEW030 FEW250 28/25 A2993 RMK AO2 SLP136 T02780250 403390261